createdAt,value
2023-02-15T00:02:16.962Z,53.51
2023-02-15T00:04:58.978Z,53.55
2023-02-15T00:07:47.841Z,53.34
2023-02-15T00:10:36.643Z,53.58
2023-02-15T00:13:25.798Z,54.05
2023-02-15T00:16:17.115Z,54.42
2023-02-15T00:19:01.835Z,54.80
2023-02-15T00:21:44.006Z,55.14
2023-02-15T00:24:34.787Z,55.11
2023-02-15T00:27:23.836Z,55.19
2023-02-15T00:30:06.105Z,56.21
2023-02-15T00:32:56.798Z,56.32
2023-02-15T00:35:39.054Z,57.01
2023-02-15T00:38:27.818Z,57.07
2023-02-15T00:41:12.114Z,57.30
2023-02-15T00:44:00.785Z,57.43
2023-02-15T00:46:44.161Z,57.65
2023-02-15T00:49:32.796Z,57.86
2023-02-15T00:52:15.077Z,58.08
2023-02-15T00:55:04.901Z,58.52
2023-02-15T00:57:47.048Z,58.45
2023-02-15T01:00:35.792Z,58.45
2023-02-15T01:03:24.775Z,59.11
2023-02-15T01:06:07.337Z,58.59
2023-02-15T01:08:55.818Z,58.43
2023-02-15T01:11:45.089Z,59.09
2023-02-15T01:14:27.440Z,59.27
2023-02-15T01:17:15.022Z,58.91
2023-02-15T01:19:57.825Z,58.96
2023-02-15T01:22:40.193Z,58.80
2023-02-15T01:25:28.750Z,59.27
2023-02-15T01:28:18.026Z,58.02
2023-02-15T01:31:00.896Z,58.57
2023-02-15T01:33:50.014Z,57.07
2023-02-15T01:36:32.797Z,57.06
2023-02-15T01:39:21.770Z,56.42
2023-02-15T01:42:05.055Z,56.17
2023-02-15T01:45:07.743Z,56.23
2023-02-15T01:47:57.085Z,56.16
2023-02-15T01:50:49.738Z,55.38
2023-02-15T01:56:47.811Z,55.17
2023-02-15T01:59:32.179Z,55.64
2023-02-15T02:02:23.838Z,55.33
2023-02-15T02:05:14.331Z,54.73
2023-02-15T02:08:06.839Z,53.99
2023-02-15T02:10:49.037Z,53.72
2023-02-15T02:13:37.765Z,53.61
2023-02-15T02:16:35.725Z,53.69
2023-02-15T02:19:49.160Z,54.30
2023-02-15T02:22:55.756Z,54.30
2023-02-15T02:26:09.128Z,55.64
2023-02-15T02:29:34.788Z,56.66
2023-02-15T02:32:16.956Z,55.55
2023-02-15T02:35:23.745Z,55.83
2023-02-15T02:38:37.752Z,54.69
2023-02-15T02:41:26.048Z,54.15
2023-02-15T02:44:27.807Z,54.58
2023-02-15T02:47:39.052Z,54.19
2023-02-15T02:50:34.754Z,52.11
2023-02-15T02:53:25.777Z,53.30
2023-02-15T02:56:41.799Z,50.88
2023-02-15T02:59:39.827Z,49.48
2023-02-15T03:02:38.843Z,47.34
2023-02-15T03:05:34.710Z,44.86
2023-02-15T03:08:23.873Z,42.02
2023-02-15T03:11:15.760Z,42.27
2023-02-15T03:14:07.054Z,39.95
2023-02-15T03:16:51.822Z,38.58
2023-02-15T03:19:38.862Z,39.66
2023-02-15T03:22:35.759Z,38.47
2023-02-15T03:25:35.084Z,37.89
2023-02-15T03:28:30.713Z,35.99
2023-02-15T03:31:23.869Z,35.75
2023-02-15T03:34:15.004Z,35.47
2023-02-15T03:37:22.738Z,33.73
2023-02-15T03:40:36.761Z,33.09
2023-02-15T03:44:01.800Z,33.87
2023-02-15T03:47:00.848Z,32.99
2023-02-15T03:49:58.106Z,31.07
2023-02-15T03:52:46.838Z,33.34
2023-02-15T03:55:29.026Z,29.99
2023-02-15T03:58:35.776Z,30.23
2023-02-15T04:01:59.159Z,30.84
2023-02-15T04:04:55.732Z,32.33
2023-02-15T04:07:38.105Z,33.37
2023-02-15T04:10:44.761Z,33.19
2023-02-15T04:13:53.831Z,31.27
2023-02-15T04:16:42.110Z,33.58
2023-02-15T04:19:42.739Z,34.82
2023-02-15T04:22:49.757Z,30.90
2023-02-15T04:25:32.229Z,31.85
2023-02-15T04:28:20.759Z,33.29
2023-02-15T04:31:09.784Z,30.84
2023-02-15T04:33:51.922Z,31.61
2023-02-15T04:36:40.708Z,30.78
2023-02-15T04:39:22.985Z,31.96
2023-02-15T04:42:11.762Z,29.01
2023-02-15T04:45:07.551Z,30.59
2023-02-15T04:47:56.801Z,32.08
2023-02-15T04:50:39.026Z,29.55
2023-02-15T04:53:27.798Z,31.08
2023-02-15T04:56:10.085Z,28.63
2023-02-15T04:58:58.795Z,28.27
2023-02-15T05:01:41.002Z,28.69
2023-02-15T05:04:29.813Z,28.50
2023-02-15T05:07:18.741Z,30.64
2023-02-15T05:10:00.999Z,30.25
2023-02-15T05:12:49.819Z,30.83
2023-02-15T05:15:39.052Z,30.16
2023-02-15T05:18:20.705Z,28.09
2023-02-15T05:21:08.975Z,29.67
2023-02-15T05:23:51.735Z,29.77
2023-02-15T05:26:59.707Z,26.91
2023-02-15T05:29:41.800Z,28.30
2023-02-15T05:32:24.231Z,29.78
2023-02-15T05:35:12.714Z,29.74
2023-02-15T05:37:55.202Z,26.19
2023-02-15T05:40:43.783Z,27.73
2023-02-15T05:43:40.737Z,26.79
2023-02-15T05:46:30.320Z,28.60
2023-02-15T05:49:12.754Z,26.23
2023-02-15T05:51:55.259Z,26.09
2023-02-15T05:54:43.759Z,26.70
2023-02-15T05:57:32.042Z,26.91
2023-02-15T06:00:14.870Z,24.92
2023-02-15T06:03:03.104Z,25.13
2023-02-15T06:05:45.831Z,26.61
2023-02-15T06:08:34.112Z,24.37
2023-02-15T06:11:16.786Z,24.21
2023-02-15T06:14:05.489Z,24.86
2023-02-15T06:16:48.783Z,26.08
2023-02-15T06:19:37.041Z,25.52
2023-02-15T06:22:19.709Z,26.14
2023-02-15T06:25:08.051Z,24.10
2023-02-15T06:27:51.758Z,26.17
2023-02-15T06:30:41.115Z,25.37
2023-02-15T06:33:22.842Z,26.59
2023-02-15T06:36:12.013Z,27.09
2023-02-15T06:38:53.834Z,27.86
2023-02-15T06:41:41.989Z,26.40
2023-02-15T06:44:36.795Z,26.23
2023-02-15T06:47:26.155Z,25.38
2023-02-15T06:50:07.782Z,23.99
2023-02-15T06:52:56.041Z,24.25
2023-02-15T06:55:38.723Z,25.50
2023-02-15T06:58:28.216Z,28.65
2023-02-15T07:01:11.172Z,28.70
2023-02-15T07:03:59.118Z,26.51
2023-02-15T07:06:42.860Z,26.98
2023-02-15T07:09:32.100Z,27.87
2023-02-15T07:12:33.789Z,25.98
2023-02-15T07:15:29.779Z,28.54
2023-02-15T07:18:12.779Z,27.38
2023-02-15T07:21:01.680Z,27.88
2023-02-15T07:23:46.071Z,26.24
2023-02-15T07:26:35.693Z,26.82
2023-02-15T07:29:18.279Z,24.67
2023-02-15T07:32:06.748Z,23.99
2023-02-15T07:34:50.153Z,25.82
2023-02-15T07:37:38.684Z,24.55
2023-02-15T07:40:21.187Z,25.65
2023-02-15T07:43:09.800Z,26.06
2023-02-15T07:45:58.064Z,26.21
2023-02-15T07:48:41.816Z,26.07
2023-02-15T07:51:30.204Z,25.40
2023-02-15T07:54:12.779Z,25.46
2023-02-15T07:57:02.184Z,25.85
2023-02-15T07:59:43.706Z,25.94
2023-02-15T08:02:32.341Z,25.00
2023-02-15T08:05:14.768Z,25.89
2023-02-15T08:07:56.943Z,25.46
2023-02-15T08:11:04.806Z,25.70
2023-02-15T08:13:58.323Z,24.53
2023-02-15T08:16:51.163Z,26.29
2023-02-15T08:19:41.156Z,27.17
2023-02-15T08:22:23.698Z,27.67
2023-02-15T08:25:13.197Z,28.01
2023-02-15T08:27:54.773Z,25.30
2023-02-15T08:30:43.118Z,27.13
2023-02-15T08:33:26.806Z,25.29
2023-02-15T08:36:19.211Z,26.79
2023-02-15T08:39:01.769Z,25.23
2023-02-15T08:41:55.168Z,26.70
2023-02-15T08:44:50.465Z,26.22
2023-02-15T08:47:39.027Z,27.53
2023-02-15T08:50:21.796Z,26.86
2023-02-15T08:53:12.816Z,27.41
2023-02-15T08:55:55.820Z,28.26
2023-02-15T08:58:45.176Z,30.11
2023-02-15T09:01:29.809Z,28.21
2023-02-15T09:04:19.046Z,29.06
2023-02-15T09:07:01.732Z,29.36
2023-02-15T09:09:50.020Z,29.53
2023-02-15T09:12:31.741Z,29.43
2023-02-15T09:15:20.142Z,30.25
2023-02-15T09:18:02.746Z,30.54
2023-02-15T09:20:53.458Z,29.70
2023-02-15T09:23:37.088Z,29.88
2023-02-15T09:26:31.030Z,28.97
2023-02-15T09:29:12.855Z,30.33
2023-02-15T09:31:55.680Z,30.10
2023-02-15T09:34:44.700Z,29.82
2023-02-15T09:37:33.858Z,30.49
2023-02-15T09:40:16.760Z,30.84
2023-02-15T09:43:19.340Z,30.73
2023-02-15T09:46:49.769Z,31.30
2023-02-15T09:50:21.983Z,31.83
2023-02-15T09:53:06.768Z,31.38
2023-02-15T09:56:07.089Z,31.35
2023-02-15T09:58:57.795Z,31.81
2023-02-15T10:01:54.004Z,30.92
2023-02-15T10:04:38.906Z,31.55
2023-02-15T10:07:50.013Z,31.16
2023-02-15T10:10:44.735Z,31.47
2023-02-15T10:13:48.106Z,31.08
2023-02-15T10:17:00.855Z,31.80
2023-02-15T10:20:07.560Z,31.48
2023-02-15T10:23:01.782Z,30.74
2023-02-15T10:26:15.913Z,31.35
2023-02-15T10:28:57.823Z,30.89
2023-02-15T10:31:56.210Z,31.17
2023-02-15T10:34:48.804Z,31.64
2023-02-15T10:37:50.145Z,31.99
2023-02-15T10:40:46.684Z,31.95
2023-02-15T10:43:53.804Z,32.12
2023-02-15T10:47:27.752Z,32.52
2023-02-15T10:50:52.776Z,33.29
2023-02-15T10:53:53.021Z,33.19
2023-02-15T10:56:56.772Z,33.53
2023-02-15T10:59:50.180Z,33.04
2023-02-15T11:02:50.784Z,33.79
2023-02-15T11:06:02.028Z,33.38
2023-02-15T11:09:04.702Z,33.96
2023-02-15T11:11:49.064Z,34.53
2023-02-15T11:15:12.762Z,33.98
2023-02-15T11:18:05.110Z,34.55
2023-02-15T11:21:18.717Z,33.35
2023-02-15T11:24:01.038Z,33.18
2023-02-15T11:27:13.782Z,33.52
2023-02-15T11:30:20.353Z,34.26
2023-02-15T11:33:13.826Z,34.57
2023-02-15T11:36:08.016Z,34.81
2023-02-15T11:39:01.698Z,35.29
2023-02-15T11:41:53.231Z,35.15
2023-02-15T11:44:51.148Z,35.58
2023-02-15T11:47:32.980Z,35.50
2023-02-15T11:50:30.723Z,35.96
2023-02-15T11:53:32.258Z,36.08
2023-02-15T11:56:25.862Z,36.66
2023-02-15T11:59:19.959Z,36.73
2023-02-15T12:02:08.690Z,36.73
2023-02-15T12:04:56.073Z,36.86
2023-02-15T12:08:12.743Z,37.09
2023-02-15T12:11:33.963Z,37.25
2023-02-15T12:14:26.233Z,37.94
2023-02-15T12:17:09.245Z,37.68
2023-02-15T12:20:00.728Z,38.11
2023-02-15T12:22:52.737Z,38.41
2023-02-15T12:25:46.009Z,39.18
2023-02-15T12:28:47.872Z,39.24
2023-02-15T12:31:51.143Z,39.11
2023-02-15T12:34:35.667Z,39.45
2023-02-15T12:37:32.773Z,39.89
2023-02-15T12:40:34.179Z,40.25
2023-02-15T12:43:46.805Z,40.99
2023-02-15T12:46:38.903Z,41.56
2023-02-15T12:49:29.782Z,42.91
2023-02-15T12:52:22.135Z,44.23
2023-02-15T12:55:10.753Z,44.39
2023-02-15T12:58:27.221Z,44.88
2023-02-15T13:01:19.795Z,44.61
2023-02-15T13:04:14.003Z,46.11
2023-02-15T13:07:00.727Z,45.88
2023-02-15T13:09:43.212Z,46.29
2023-02-15T13:12:38.731Z,46.73
2023-02-15T13:15:45.853Z,46.66
2023-02-15T13:18:42.227Z,47.90
2023-02-15T13:21:40.697Z,48.54
2023-02-15T13:24:42.227Z,49.70
2023-02-15T13:27:36.821Z,49.98
2023-02-15T13:30:43.705Z,49.42
2023-02-15T13:33:36.822Z,49.80
2023-02-15T13:36:28.061Z,50.10
2023-02-15T13:39:39.684Z,49.35
2023-02-15T13:42:50.167Z,50.34
2023-02-15T13:45:48.731Z,52.06
2023-02-15T13:48:57.986Z,51.87
2023-02-15T13:52:02.792Z,52.53
2023-02-15T13:54:54.183Z,52.20
2023-02-15T13:57:47.827Z,52.72
2023-02-15T14:00:46.254Z,52.65
2023-02-15T14:04:02.864Z,53.62
2023-02-15T14:07:12.089Z,53.37
2023-02-15T14:10:03.695Z,53.30
2023-02-15T14:13:17.238Z,55.45
2023-02-15T14:16:12.846Z,54.80
2023-02-15T14:19:18.060Z,54.98
2023-02-15T14:22:16.796Z,55.44
2023-02-15T14:25:23.709Z,55.06
2023-02-15T14:28:28.919Z,55.60
2023-02-15T14:31:21.857Z,55.88
2023-02-15T14:34:08.588Z,55.37
2023-02-15T14:37:00.723Z,56.83
2023-02-15T14:40:10.650Z,56.21
2023-02-15T14:43:37.768Z,56.93
2023-02-15T14:47:02.021Z,57.28
2023-02-15T14:49:48.771Z,58.03
2023-02-15T14:52:38.106Z,57.87
2023-02-15T14:55:46.727Z,58.99
2023-02-15T14:58:29.042Z,58.30
2023-02-15T15:01:26.808Z,58.60
2023-02-15T15:04:22.036Z,58.14
2023-02-15T15:07:09.082Z,59.07
2023-02-15T15:10:32.197Z,58.73
2023-02-15T15:13:44.795Z,59.37
2023-02-15T15:16:32.320Z,59.61
2023-02-15T15:19:25.756Z,59.84
2023-02-15T15:22:13.981Z,59.87
2023-02-15T15:25:02.736Z,59.78
2023-02-15T15:27:56.110Z,60.56
2023-02-15T15:30:48.838Z,60.16
2023-02-15T15:34:12.437Z,60.74
2023-02-15T15:37:30.792Z,60.59
2023-02-15T15:40:41.388Z,61.21
2023-02-15T15:43:49.873Z,61.41
2023-02-15T15:46:44.072Z,61.86
2023-02-15T15:49:27.662Z,62.19
2023-02-15T15:52:28.131Z,62.34
2023-02-15T15:55:23.698Z,62.35
2023-02-15T15:58:09.470Z,62.03
2023-02-15T16:01:04.755Z,62.28
2023-02-15T16:04:02.121Z,62.54
2023-02-15T16:06:46.677Z,62.79
2023-02-15T16:09:37.066Z,63.29
2023-02-15T16:12:26.838Z,63.00
2023-02-15T16:15:33.084Z,62.73
2023-02-15T16:18:15.729Z,63.39
2023-02-15T16:21:10.046Z,63.64
2023-02-15T16:24:03.746Z,64.16
2023-02-15T16:27:00.700Z,64.20
2023-02-15T16:29:49.788Z,63.86
2023-02-15T16:32:40.902Z,64.07
2023-02-15T16:35:28.168Z,64.27
2023-02-15T16:38:20.885Z,63.68
2023-02-15T16:41:06.130Z,64.29
2023-02-15T16:43:57.723Z,64.19
2023-02-15T16:46:57.647Z,63.80
2023-02-15T16:49:47.805Z,63.49
2023-02-15T16:52:34.141Z,64.51
2023-02-15T16:55:37.913Z,64.78
2023-02-15T16:58:26.235Z,64.51
2023-02-15T17:01:17.781Z,64.97
2023-02-15T17:04:19.039Z,64.67
2023-02-15T17:07:14.745Z,65.14
2023-02-15T17:10:04.960Z,64.73
2023-02-15T17:13:06.711Z,64.60
2023-02-15T17:16:13.114Z,65.83
2023-02-15T17:19:02.743Z,65.57
2023-02-15T17:21:52.245Z,65.82
2023-02-15T17:24:45.710Z,65.69
2023-02-15T17:27:31.200Z,66.34
2023-02-15T17:30:29.805Z,65.89
2023-02-15T17:33:12.985Z,66.09
2023-02-15T17:36:20.768Z,66.43
2023-02-15T17:39:06.062Z,66.24
2023-02-15T17:41:55.657Z,66.31
2023-02-15T17:44:37.998Z,66.81
2023-02-15T17:47:38.921Z,66.42
2023-02-15T17:50:34.023Z,66.73
2023-02-15T17:53:17.767Z,66.30
2023-02-15T17:56:00.088Z,66.48
2023-02-15T17:58:49.860Z,66.58
2023-02-15T18:01:57.392Z,67.40
2023-02-15T18:05:02.746Z,67.40
2023-02-15T18:08:03.240Z,67.01
2023-02-15T18:11:09.769Z,67.58
2023-02-15T18:14:02.483Z,67.44
2023-02-15T18:16:50.801Z,67.89
2023-02-15T18:19:48.184Z,67.97
2023-02-15T18:22:31.145Z,67.80
2023-02-15T18:25:22.038Z,67.88
2023-02-15T18:28:10.711Z,68.61
2023-02-15T18:30:59.762Z,68.39
2023-02-15T18:33:46.180Z,68.74
2023-02-15T18:36:41.759Z,68.73
2023-02-15T18:39:36.143Z,69.70
2023-02-15T18:42:36.753Z,69.46
2023-02-15T18:45:44.748Z,69.73
2023-02-15T18:48:33.014Z,69.65
2023-02-15T18:51:25.676Z,69.36
2023-02-15T18:54:18.370Z,69.17
2023-02-15T18:57:12.712Z,68.92
2023-02-15T19:00:02.246Z,69.36
2023-02-15T19:02:44.843Z,68.69
2023-02-15T19:05:29.403Z,69.41
2023-02-15T19:08:19.826Z,69.36
2023-02-15T19:11:08.979Z,69.12
2023-02-15T19:13:51.781Z,68.89
2023-02-15T19:16:43.061Z,69.19
2023-02-15T19:19:25.736Z,69.45
2023-02-15T19:22:18.022Z,69.04
2023-02-15T19:25:02.146Z,68.93
2023-02-15T19:27:50.129Z,69.41
2023-02-15T19:30:40.057Z,69.02
2023-02-15T19:33:29.086Z,69.22
2023-02-15T19:36:11.902Z,69.53
2023-02-15T19:39:02.006Z,68.82
2023-02-15T19:41:44.737Z,69.24
2023-02-15T19:44:32.982Z,69.29
2023-02-15T19:47:21.627Z,69.06
2023-02-15T19:50:04.957Z,69.22
2023-02-15T19:52:54.710Z,69.14
2023-02-15T19:55:40.042Z,69.73
2023-02-15T19:58:29.739Z,69.58
2023-02-15T20:01:12.230Z,69.58
2023-02-15T20:04:00.723Z,69.00
2023-02-15T20:06:43.017Z,68.54
2023-02-15T20:09:34.766Z,69.53
2023-02-15T20:12:33.034Z,69.13
2023-02-15T20:15:34.786Z,68.78
2023-02-15T20:18:19.246Z,68.88
2023-02-15T20:21:10.669Z,69.32
2023-02-15T20:23:52.977Z,68.61
2023-02-15T20:26:41.840Z,68.59
2023-02-15T20:29:25.979Z,68.21
2023-02-15T20:32:14.761Z,68.71
2023-02-15T20:34:57.001Z,68.41
2023-02-15T20:37:45.750Z,68.18
2023-02-15T20:40:32.114Z,67.25
2023-02-15T20:43:23.694Z,67.75
2023-02-15T20:46:13.012Z,66.79
2023-02-15T20:48:55.688Z,66.98
2023-02-15T20:51:45.583Z,67.46
2023-02-15T20:54:31.708Z,67.31
2023-02-15T20:57:20.908Z,68.29
2023-02-15T21:00:03.812Z,67.64
2023-02-15T21:03:01.979Z,67.99
2023-02-15T21:05:43.695Z,67.91
2023-02-15T21:08:34.198Z,68.67
2023-02-15T21:11:28.818Z,68.73
2023-02-15T21:14:28.135Z,68.83
2023-02-15T21:17:10.646Z,69.16
2023-02-15T21:20:05.666Z,68.95
2023-02-15T21:22:55.010Z,69.34
2023-02-15T21:25:45.661Z,68.92
2023-02-15T21:28:36.021Z,69.16
2023-02-15T21:31:26.801Z,69.73
2023-02-15T21:34:15.063Z,69.40
2023-02-15T21:36:58.664Z,69.42
2023-02-15T21:39:47.697Z,69.30
2023-02-15T21:42:48.474Z,69.72
2023-02-15T21:45:55.734Z,69.89
2023-02-15T21:48:38.025Z,69.53
2023-02-15T21:51:46.561Z,69.39
2023-02-15T21:54:35.644Z,69.75
2023-02-15T21:57:21.085Z,68.99
2023-02-15T22:00:10.717Z,69.55
2023-02-15T22:03:04.947Z,69.55
2023-02-15T22:05:47.633Z,69.31
2023-02-15T22:08:36.718Z,69.43
2023-02-15T22:11:24.948Z,69.06
2023-02-15T22:14:13.603Z,69.11
2023-02-15T22:16:55.951Z,69.57
2023-02-15T22:19:44.663Z,69.21
2023-02-15T22:22:27.254Z,70.23
2023-02-15T22:25:15.718Z,69.09
2023-02-15T22:27:59.905Z,69.02
2023-02-15T22:30:48.654Z,69.04
2023-02-15T22:33:48.642Z,68.99
2023-02-15T22:36:38.933Z,69.08
2023-02-15T22:39:20.709Z,69.21
2023-02-15T22:42:02.886Z,69.26
2023-02-15T22:44:51.649Z,68.45
2023-02-15T22:47:37.094Z,68.93
2023-02-15T22:50:41.726Z,68.75
2023-02-15T22:53:30.970Z,69.15
2023-02-15T22:56:16.719Z,69.44
2023-02-15T22:59:03.627Z,68.79
2023-02-15T23:01:53.653Z,68.97
2023-02-15T23:04:41.949Z,68.87
2023-02-15T23:07:26.610Z,68.72
2023-02-15T23:10:25.058Z,68.85
2023-02-15T23:13:26.651Z,69.18
2023-02-15T23:16:21.067Z,68.84
2023-02-15T23:19:03.771Z,68.95
2023-02-15T23:21:46.034Z,69.35
2023-02-15T23:24:36.637Z,69.31
2023-02-15T23:27:45.487Z,69.09
2023-02-15T23:30:28.699Z,69.05
2023-02-15T23:33:19.930Z,69.42
2023-02-15T23:36:02.646Z,69.60
2023-02-15T23:38:44.855Z,70.23
2023-02-15T23:41:38.637Z,69.57
2023-02-15T23:44:21.260Z,69.71
2023-02-15T23:47:09.707Z,70.05
2023-02-15T23:49:57.923Z,70.22
2023-02-15T23:52:39.644Z,70.97
2023-02-15T23:55:28.961Z,70.95
2023-02-15T23:58:19.681Z,70.84
